Shunho Maru — JMXQ — position and weather

sailwx.info

Track history (hours):
 
Tides and Currents Weather Stations Pressure Air Temp Water Temp Dewpoint Dewpoint Depression Visibility Wind Speed Wind Dir Waves Ship Positions

Shunho Maru

Last reported at 2017-Dec-14 06:32 UTC. Time now 2017-Dec-15 10:05 UTC.
Position N 41°26' E 141°34'.

Length 69 m; draft 4.4 m.

Type: Tanker. MMSI: 432477000.

Date/timePositionNaut miles runAvg speedWind from/ knotsBaromVisibWave heightAir tempDewpointWater temp
2017-Dec-14 06:32N 41°26' E 141°34'40711.1
2017-Dec-12 17:49N 34°50' E 139°33'1612.4
2017-Dec-12 16:32N 34°46' E 139°14'213.4
2017-Dec-12 16:23N 34°45' E 139°13'512.7
2017-Dec-12 15:59N 34°42' E 139°08'812.1
2017-Dec-12 15:20N 34°37' E 138°60'411.9
2017-Dec-12 15:00N 34°35' E 138°56'913.0
2017-Dec-12 14:21N 34°34' E 138°45'513.5
2017-Dec-12 14:00N 34°34' E 138°40'913.3
2017-Dec-12 13:20N 34°33' E 138°29'613.4
2017-Dec-12 12:55N 34°32' E 138°22'512.9
2017-Dec-12 12:30N 34°32' E 138°16'813.6
2017-Dec-12 11:53N 34°30' E 138°06'15710.6
2017-Dec-11 21:06N 33°56' E 135°01'213.1
2017-Dec-11 20:57N 33°58' E 135°00'612.8
2017-Dec-11 20:30N 34°03' E 134°60'713.2
2017-Dec-11 19:59N 34°10' E 134°59'613.1
2017-Dec-11 19:30N 34°17' E 134°59'612.7
2017-Dec-11 19:00N 34°23' E 135°00'612.6
2017-Dec-11 18:31N 34°29' E 135°02'611.9
2017-Dec-11 18:00N 34°35' E 135°03'5 9.6
2017-Dec-11 17:31N 34°37' E 134°58'612.0
2017-Dec-11 17:00N 34°39' E 134°51'612.7
2017-Dec-11 16:30N 34°42' E 134°44'612.3
2017-Dec-11 15:59N 34°43' E 134°37'0 0.2
2017-Dec-11 15:31N 34°43' E 134°36'0 0.0
2017-Dec-11 14:58N 34°43' E 134°36'0 0.0
2017-Dec-11 14:28N 34°43' E 134°36'0 0.0
2017-Dec-11 13:58N 34°43' E 134°36'0 0.0
2017-Dec-11 13:28N 34°43' E 134°36'0 0.0
2017-Dec-11 12:55N 34°43' E 134°36'0 0.1
2017-Dec-11 12:28N 34°43' E 134°36'0 0.0
2017-Dec-11 11:40N 34°43' E 134°36'0 0.0
2017-Dec-11 11:28N 34°43' E 134°36'0 0.0
2017-Dec-11 10:58N 34°43' E 134°36'0 0.0
2017-Dec-11 10:16N 34°43' E 134°36'0 0.0
2017-Dec-11 09:58N 34°43' E 134°36'0 0.0
2017-Dec-11 09:28N 34°43' E 134°36'0 0.0
2017-Dec-11 08:46N 34°43' E 134°36'0 0.0
2017-Dec-11 08:16N 34°43' E 134°36'0 0.0
2017-Dec-11 07:52N 34°43' E 134°36'0 0.0
2017-Dec-11 07:28N 34°43' E 134°36'0 0.0
2017-Dec-11 06:16N 34°43' E 134°36'0 0.1
2017-Dec-11 05:58N 34°43' E 134°36'0 0.1
2017-Dec-11 05:28N 34°43' E 134°36'0 0.0
2017-Dec-11 04:58N 34°43' E 134°36'0 0.0
2017-Dec-11 04:28N 34°43' E 134°36'0 0.0
2017-Dec-11 03:58N 34°43' E 134°36'0 0.0
2017-Dec-11 03:28N 34°43' E 134°36'0 0.1
2017-Dec-11 02:59N 34°43' E 134°36'2 5.0
2017-Dec-11 02:30N 34°46' E 134°35'0 0.1
2017-Dec-10 23:39N 34°46' E 134°35'0 0.8
2017-Dec-10 23:29N 34°46' E 134°35'1 2.1
2017-Dec-10 23:00N 34°45' E 134°35'1 1.5
2017-Dec-10 22:30N 34°44' E 134°34'5 8.6
2017-Dec-10 21:58N 34°42' E 134°29'712.7
2017-Dec-10 21:26N 34°39' E 134°23'1312.9
2017-Dec-10 20:26N 34°33' E 134°09'7711.0
2017-Dec-10 13:30N 34°05' E 132°43'612.3
2017-Dec-10 13:00N 34°01' E 132°37'611.7
2017-Dec-10 12:30N 33°57' E 132°32'712.0
2017-Dec-10 11:57N 33°53' E 132°26'611.5
2017-Dec-10 11:25N 33°50' E 132°19'1411.5
2017-Dec-10 10:11N 33°46' E 132°03'310.9
2017-Dec-10 09:57N 33°47' E 132°00'811.9
2017-Dec-10 09:15N 33°53' E 131°53'312.2
2017-Dec-10 09:00N 33°55' E 131°50'611.9
2017-Dec-10 08:30N 33°59' E 131°45'5 0.9
2017-Dec-10 03:06N 34°02' E 131°49'0 1.5
2017-Dec-10 02:58N 34°02' E 131°49'1 0.9
2017-Dec-10 02:23N 34°02' E 131°48'0 0.2
2017-Dec-10 01:25N 34°02' E 131°48'0 0.0
2017-Dec-10 00:55N 34°02' E 131°48'0 0.0
2017-Dec-10 00:13N 34°02' E 131°48'0 0.0
2017-Dec-09 23:55N 34°02' E 131°48'0 0.0
2017-Dec-09 23:19N 34°02' E 131°48'0 0.0
2017-Dec-09 22:43N 34°02' E 131°48'0 0.0
2017-Dec-09 22:13N 34°02' E 131°48'0 0.0
2017-Dec-09 21:55N 34°02' E 131°48'0 0.0
2017-Dec-09 19:55N 34°02' E 131°48'0 0.0
2017-Dec-09 19:07N 34°02' E 131°48'0 0.0
2017-Dec-09 18:55N 34°02' E 131°48'0 0.0
2017-Dec-09 18:25N 34°02' E 131°48'0 0.0
2017-Dec-09 17:55N 34°02' E 131°48'0 0.0
2017-Dec-09 17:01N 34°02' E 131°48'0 0.0
2017-Dec-09 16:49N 34°02' E 131°48'0 0.0
2017-Dec-09 16:19N 34°02' E 131°48'0 0.0
2017-Dec-09 15:55N 34°02' E 131°48'0 0.0
2017-Dec-09 15:13N 34°02' E 131°48'0 0.0
2017-Dec-09 14:55N 34°02' E 131°48'0 0.0
2017-Dec-09 14:19N 34°02' E 131°48'0 0.0
2017-Dec-09 13:55N 34°02' E 131°48'0 0.0
2017-Dec-09 12:49N 34°02' E 131°48'0 0.1
2017-Dec-09 12:25N 34°02' E 131°48'0 0.0
2017-Dec-09 10:07N 34°01' E 131°48'0 0.0
2017-Dec-09 09:49N 34°01' E 131°48'0 0.0
2017-Dec-09 05:12N 34°02' E 131°48'0 0.1
2017-Dec-09 05:00N 34°02' E 131°48'0 0.1
2017-Dec-09 03:36N 34°01' E 131°48'0 0.0
2017-Dec-09 03:24N 34°01' E 131°48'0 0.0
2017-Dec-09 00:30N 34°01' E 131°48'0 0.0
2017-Dec-08 22:36N 34°01' E 131°48'0 0.0
2017-Dec-08 19:06N 34°01' E 131°48'4 1.5
2017-Dec-08 16:44N 33°59' E 131°45'311.3
2017-Dec-08 16:30N 33°57' E 131°47'711.4
2017-Dec-08 15:52N 33°53' E 131°53'411.5
2017-Dec-08 15:30N 33°50' E 131°57'611.5
2017-Dec-08 15:00N 33°46' E 132°02'711.9
2017-Dec-08 14:23N 33°49' E 132°10'612.0
2017-Dec-08 13:52N 33°50' E 132°18'411.7
2017-Dec-08 13:30N 33°51' E 132°23'610.9
2017-Dec-08 12:55N 33°55' E 132°28'512.0
2017-Dec-08 12:29N 33°58' E 132°34'612.2
2017-Dec-08 12:00N 34°02' E 132°38'712.6
2017-Dec-08 11:26N 34°07' E 132°45'1712.1
2017-Dec-08 10:03N 34°18' E 132°60'8311.1
2017-Dec-08 02:31N 34°46' E 134°35'0 5.7
2017-Dec-08 02:30N 34°46' E 134°35'0 0.3
2017-Dec-08 01:56N 34°46' E 134°35'0 0.0
2017-Dec-08 01:26N 34°46' E 134°35'0 0.0
2017-Dec-08 00:56N 34°46' E 134°35'0 0.0
2017-Dec-08 00:14N 34°46' E 134°35'0 0.0
2017-Dec-07 23:49N 34°46' E 134°35'0 0.1
2017-Dec-07 23:13N 34°46' E 134°35'1 0.7
2017-Dec-07 22:10N 34°45' E 134°36'0 0.0
2017-Dec-07 21:46N 34°45' E 134°36'0 0.2
2017-Dec-07 21:28N 34°45' E 134°36'0 0.1
2017-Dec-07 20:58N 34°45' E 134°36'0 0.0
2017-Dec-07 20:22N 34°45' E 134°36'0 0.0
2017-Dec-07 18:10N 34°45' E 134°36'0 0.0
2017-Dec-07 17:58N 34°45' E 134°36'0 0.0
2017-Dec-07 16:03N 34°45' E 134°36'0 0.0
2017-Dec-07 15:57N 34°45' E 134°36'0 0.0
2017-Dec-07 15:09N 34°45' E 134°36'0 0.0
2017-Dec-07 14:57N 34°45' E 134°36'0 0.0
2017-Dec-07 13:39N 34°45' E 134°36'0 0.0
2017-Dec-07 13:15N 34°45' E 134°36'0 0.0
2017-Dec-07 12:51N 34°45' E 134°36'0 0.0
2017-Dec-07 12:27N 34°45' E 134°36'0 0.1
2017-Dec-07 11:57N 34°45' E 134°36'0 0.0
2017-Dec-07 11:18N 34°45' E 134°36'0 0.0
2017-Dec-07 10:48N 34°45' E 134°36'0 0.0
2017-Dec-07 10:30N 34°45' E 134°36'4 6.8
2017-Dec-07 09:58N 34°43' E 134°32'17 1.6
2017-Dec-06 22:44N 34°26' E 134°26'312.8
2017-Dec-06 22:30N 34°28' E 134°29'612.9
2017-Dec-06 22:00N 34°30' E 134°36'712.7
2017-Dec-06 21:29N 34°32' E 134°44'612.1
2017-Dec-06 20:59N 34°35' E 134°51'  
Track history (hours):
 
Tides and Currents Weather Stations Pressure Air Temp Water Temp Dewpoint Dewpoint Depression Visibility Wind Speed Wind Dir Waves Ship Positions

Shunho Maru

Last reported at 2017-Dec-14 06:32 UTC. Time now 2017-Dec-15 10:05 UTC.
Position N 41°26' E 141°34'.

Length 69 m; draft 4.4 m.

Type: Tanker. MMSI: 432477000.

Date/timePositionNaut miles runAvg speedWind from/ knotsBaromVisibWave heightAir tempDewpointWater temp
2017-Dec-14 06:32N 41°26' E 141°34'40711.1
2017-Dec-12 17:49N 34°50' E 139°33'1612.4
2017-Dec-12 16:32N 34°46' E 139°14'213.4
2017-Dec-12 16:23N 34°45' E 139°13'512.7
2017-Dec-12 15:59N 34°42' E 139°08'812.1
2017-Dec-12 15:20N 34°37' E 138°60'411.9
2017-Dec-12 15:00N 34°35' E 138°56'913.0
2017-Dec-12 14:21N 34°34' E 138°45'513.5
2017-Dec-12 14:00N 34°34' E 138°40'913.3
2017-Dec-12 13:20N 34°33' E 138°29'613.4
2017-Dec-12 12:55N 34°32' E 138°22'512.9
2017-Dec-12 12:30N 34°32' E 138°16'813.6
2017-Dec-12 11:53N 34°30' E 138°06'15710.6
2017-Dec-11 21:06N 33°56' E 135°01'213.1
2017-Dec-11 20:57N 33°58' E 135°00'612.8
2017-Dec-11 20:30N 34°03' E 134°60'713.2
2017-Dec-11 19:59N 34°10' E 134°59'613.1
2017-Dec-11 19:30N 34°17' E 134°59'612.7
2017-Dec-11 19:00N 34°23' E 135°00'612.6
2017-Dec-11 18:31N 34°29' E 135°02'611.9
2017-Dec-11 18:00N 34°35' E 135°03'5 9.6
2017-Dec-11 17:31N 34°37' E 134°58'612.0
2017-Dec-11 17:00N 34°39' E 134°51'612.7
2017-Dec-11 16:30N 34°42' E 134°44'612.3
2017-Dec-11 15:59N 34°43' E 134°37'0 0.2
2017-Dec-11 15:31N 34°43' E 134°36'0 0.0
2017-Dec-11 14:58N 34°43' E 134°36'0 0.0
2017-Dec-11 14:28N 34°43' E 134°36'0 0.0
2017-Dec-11 13:58N 34°43' E 134°36'0 0.0
2017-Dec-11 13:28N 34°43' E 134°36'0 0.0
2017-Dec-11 12:55N 34°43' E 134°36'0 0.1
2017-Dec-11 12:28N 34°43' E 134°36'0 0.0
2017-Dec-11 11:40N 34°43' E 134°36'0 0.0
2017-Dec-11 11:28N 34°43' E 134°36'0 0.0
2017-Dec-11 10:58N 34°43' E 134°36'0 0.0
2017-Dec-11 10:16N 34°43' E 134°36'0 0.0
2017-Dec-11 09:58N 34°43' E 134°36'0 0.0
2017-Dec-11 09:28N 34°43' E 134°36'0 0.0
2017-Dec-11 08:46N 34°43' E 134°36'0 0.0
2017-Dec-11 08:16N 34°43' E 134°36'0 0.0
2017-Dec-11 07:52N 34°43' E 134°36'0 0.0
2017-Dec-11 07:28N 34°43' E 134°36'0 0.0
2017-Dec-11 06:16N 34°43' E 134°36'0 0.1
2017-Dec-11 05:58N 34°43' E 134°36'0 0.1
2017-Dec-11 05:28N 34°43' E 134°36'0 0.0
2017-Dec-11 04:58N 34°43' E 134°36'0 0.0
2017-Dec-11 04:28N 34°43' E 134°36'0 0.0
2017-Dec-11 03:58N 34°43' E 134°36'0 0.0
2017-Dec-11 03:28N 34°43' E 134°36'0 0.1
2017-Dec-11 02:59N 34°43' E 134°36'2 5.0
2017-Dec-11 02:30N 34°46' E 134°35'0 0.1
2017-Dec-10 23:39N 34°46' E 134°35'0 0.8
2017-Dec-10 23:29N 34°46' E 134°35'1 2.1
2017-Dec-10 23:00N 34°45' E 134°35'1 1.5
2017-Dec-10 22:30N 34°44' E 134°34'5 8.6
2017-Dec-10 21:58N 34°42' E 134°29'712.7
2017-Dec-10 21:26N 34°39' E 134°23'1312.9
2017-Dec-10 20:26N 34°33' E 134°09'7711.0
2017-Dec-10 13:30N 34°05' E 132°43'612.3
2017-Dec-10 13:00N 34°01' E 132°37'611.7
2017-Dec-10 12:30N 33°57' E 132°32'712.0
2017-Dec-10 11:57N 33°53' E 132°26'611.5
2017-Dec-10 11:25N 33°50' E 132°19'1411.5
2017-Dec-10 10:11N 33°46' E 132°03'310.9
2017-Dec-10 09:57N 33°47' E 132°00'811.9
2017-Dec-10 09:15N 33°53' E 131°53'312.2
2017-Dec-10 09:00N 33°55' E 131°50'611.9
2017-Dec-10 08:30N 33°59' E 131°45'5 0.9
2017-Dec-10 03:06N 34°02' E 131°49'0 1.5
2017-Dec-10 02:58N 34°02' E 131°49'1 0.9
2017-Dec-10 02:23N 34°02' E 131°48'0 0.2
2017-Dec-10 01:25N 34°02' E 131°48'0 0.0
2017-Dec-10 00:55N 34°02' E 131°48'0 0.0
2017-Dec-10 00:13N 34°02' E 131°48'0 0.0
2017-Dec-09 23:55N 34°02' E 131°48'0 0.0
2017-Dec-09 23:19N 34°02' E 131°48'0 0.0
2017-Dec-09 22:43N 34°02' E 131°48'0 0.0
2017-Dec-09 22:13N 34°02' E 131°48'0 0.0
2017-Dec-09 21:55N 34°02' E 131°48'0 0.0
2017-Dec-09 19:55N 34°02' E 131°48'0 0.0
2017-Dec-09 19:07N 34°02' E 131°48'0 0.0
2017-Dec-09 18:55N 34°02' E 131°48'0 0.0
2017-Dec-09 18:25N 34°02' E 131°48'0 0.0
2017-Dec-09 17:55N 34°02' E 131°48'0 0.0
2017-Dec-09 17:01N 34°02' E 131°48'0 0.0
2017-Dec-09 16:49N 34°02' E 131°48'0 0.0
2017-Dec-09 16:19N 34°02' E 131°48'0 0.0
2017-Dec-09 15:55N 34°02' E 131°48'0 0.0
2017-Dec-09 15:13N 34°02' E 131°48'0 0.0
2017-Dec-09 14:55N 34°02' E 131°48'0 0.0
2017-Dec-09 14:19N 34°02' E 131°48'0 0.0
2017-Dec-09 13:55N 34°02' E 131°48'0 0.0
2017-Dec-09 12:49N 34°02' E 131°48'0 0.1
2017-Dec-09 12:25N 34°02' E 131°48'0 0.0
2017-Dec-09 10:07N 34°01' E 131°48'0 0.0
2017-Dec-09 09:49N 34°01' E 131°48'0 0.0
2017-Dec-09 05:12N 34°02' E 131°48'0 0.1
2017-Dec-09 05:00N 34°02' E 131°48'0 0.1
2017-Dec-09 03:36N 34°01' E 131°48'0 0.0
2017-Dec-09 03:24N 34°01' E 131°48'0 0.0
2017-Dec-09 00:30N 34°01' E 131°48'0 0.0
2017-Dec-08 22:36N 34°01' E 131°48'0 0.0
2017-Dec-08 19:06N 34°01' E 131°48'4 1.5
2017-Dec-08 16:44N 33°59' E 131°45'311.3
2017-Dec-08 16:30N 33°57' E 131°47'711.4
2017-Dec-08 15:52N 33°53' E 131°53'411.5
2017-Dec-08 15:30N 33°50' E 131°57'611.5
2017-Dec-08 15:00N 33°46' E 132°02'711.9
2017-Dec-08 14:23N 33°49' E 132°10'612.0
2017-Dec-08 13:52N 33°50' E 132°18'411.7
2017-Dec-08 13:30N 33°51' E 132°23'610.9
2017-Dec-08 12:55N 33°55' E 132°28'512.0
2017-Dec-08 12:29N 33°58' E 132°34'612.2
2017-Dec-08 12:00N 34°02' E 132°38'712.6
2017-Dec-08 11:26N 34°07' E 132°45'1712.1
2017-Dec-08 10:03N 34°18' E 132°60'8311.1
2017-Dec-08 02:31N 34°46' E 134°35'0 5.7
2017-Dec-08 02:30N 34°46' E 134°35'0 0.3
2017-Dec-08 01:56N 34°46' E 134°35'0 0.0
2017-Dec-08 01:26N 34°46' E 134°35'0 0.0
2017-Dec-08 00:56N 34°46' E 134°35'0 0.0
2017-Dec-08 00:14N 34°46' E 134°35'0 0.0
2017-Dec-07 23:49N 34°46' E 134°35'0 0.1
2017-Dec-07 23:13N 34°46' E 134°35'1 0.7
2017-Dec-07 22:10N 34°45' E 134°36'0 0.0
2017-Dec-07 21:46N 34°45' E 134°36'0 0.2
2017-Dec-07 21:28N 34°45' E 134°36'0 0.1
2017-Dec-07 20:58N 34°45' E 134°36'0 0.0
2017-Dec-07 20:22N 34°45' E 134°36'0 0.0
2017-Dec-07 18:10N 34°45' E 134°36'0 0.0
2017-Dec-07 17:58N 34°45' E 134°36'0 0.0
2017-Dec-07 16:03N 34°45' E 134°36'0 0.0
2017-Dec-07 15:57N 34°45' E 134°36'0 0.0
2017-Dec-07 15:09N 34°45' E 134°36'0 0.0
2017-Dec-07 14:57N 34°45' E 134°36'0 0.0
2017-Dec-07 13:39N 34°45' E 134°36'0 0.0
2017-Dec-07 13:15N 34°45' E 134°36'0 0.0
2017-Dec-07 12:51N 34°45' E 134°36'0 0.0
2017-Dec-07 12:27N 34°45' E 134°36'0 0.1
2017-Dec-07 11:57N 34°45' E 134°36'0 0.0
2017-Dec-07 11:18N 34°45' E 134°36'0 0.0
2017-Dec-07 10:48N 34°45' E 134°36'0 0.0
2017-Dec-07 10:30N 34°45' E 134°36'4 6.8
2017-Dec-07 09:58N 34°43' E 134°32'17 1.6
2017-Dec-06 22:44N 34°26' E 134°26'312.8
2017-Dec-06 22:30N 34°28' E 134°29'612.9
2017-Dec-06 22:00N 34°30' E 134°36'712.7
2017-Dec-06 21:29N 34°32' E 134°44'612.1
2017-Dec-06 20:59N 34°35' E 134°51'  

Dump ship's entire track history